罗盘
风向 的 风向 110° Wickenby Aerodrome 3/21
风: 2 kt, 1 beaufort


2 kt
改变
0 1.000 2.000 3.000 4.000 5.000
未检测到零云
METAR EGXP 110450Z AUTO 11002KT 9999 // NCD 13/13 Q1023

METAR Wickenby Aerodrome - EGNW

Wickenby Aerodrome是Lincoln,英国中的小机场。 该机场有2条跑道: 3/21 和 16/34. 该领域的国际民航组织标志是EGNW.

这份报告是针对2022年8月11日 05:50, 当地时间在RAF Scampton进行的。

机场观察

风向为110°,速度为2 kt。

可见度为10 km 或者更多。

有未检测到零云。 没有观察到天花板。

温度和风寒是13 °C。 露点为13 °C,相对湿度为100%。 海平面上的气压为1023 hPa (QNH)。

白天

今天,太阳从05:34升起,在20:38降落。 这适用于Wickenby Aerodrome,世界夏令时可能有所不同。 当地时间与世界标准时间之间的时差为+1 小时。 夏令时目前正在进行中。

公司介绍

我们没有关于这个机场的公司信息。

体会

到Vliegles.nl去找飞行课程,跳伞和其他飞行体验。 浏览页面,了解Wickenby Aerodrome附近所有可用的活动。 你也可以使用搜索功能来寻找你所在地附近的特定飞行课程、跳伞或其他飞行体验。

跑道

Id 标题 侧风 逆风 侧风 %
3/21 027°-207° 2 kt 99 %
16/34 152°-332° 1 kt 1 kt 67 %

逆风成分最大的方向会被突出显示,并用于横风计算。 这并不一定意味着这个方向在使用。

乌云

- NCD 未检测到零云

温度 & 天气

温度 13 °C
露点 13 °C
相对湿度 100%
Kp-index 2  

白天

日出
05:35
中午
13:07
日落
20:39 (14h 16m)

小工具

你想在你的网站上有一个关于Wickenby Aerodrome的当前航空天气(METAR)的小部件吗?

</> 显示HTML代码

我们和第三方通过cookies跟踪您在我们网站上的上网行为。如果您继续,我们认为您同意我们的cookie政策。 了解更多